createdAt,value
2024-03-12T00:02:18.060Z,14.18
2024-03-12T00:04:45.339Z,14.63
2024-03-12T00:07:12.630Z,15.90
2024-03-12T00:09:41.246Z,11.15
2024-03-12T00:12:09.006Z,13.10
2024-03-12T00:14:36.160Z,10.82
2024-03-12T00:17:03.337Z,14.73
2024-03-12T00:19:30.494Z,8.82
2024-03-12T00:21:58.633Z,13.48
2024-03-12T00:24:25.795Z,10.38
2024-03-12T00:26:54.710Z,17.70
2024-03-12T00:29:22.994Z,8.85
2024-03-12T00:31:50.336Z,16.45
2024-03-12T00:34:17.501Z,12.02
2024-03-12T00:36:45.263Z,11.23
2024-03-12T00:39:12.518Z,10.38
2024-03-12T00:41:39.692Z,9.40
2024-03-12T00:44:08.548Z,13.70
2024-03-12T00:46:37.189Z,12.00
2024-03-12T00:49:04.521Z,10.07
2024-03-12T00:51:34.728Z,14.38
2024-03-12T00:54:03.372Z,13.73
2024-03-12T00:56:30.530Z,14.55
2024-03-12T00:58:57.702Z,16.63
2024-03-12T01:01:27.691Z,14.55
2024-03-12T01:03:56.019Z,17.60
2024-03-12T01:06:23.358Z,15.63
2024-03-12T01:08:50.625Z,19.08
2024-03-12T01:11:17.918Z,16.90
2024-03-12T01:13:48.820Z,15.63
2024-03-12T01:16:16.247Z,10.35
2024-03-12T01:18:44.910Z,16.13
2024-03-12T01:21:12.117Z,13.38
2024-03-12T01:23:41.205Z,12.15
2024-03-12T01:26:08.562Z,13.30
2024-03-12T01:28:36.268Z,14.50
2024-03-12T01:31:03.969Z,18.45
2024-03-12T01:33:31.915Z,11.05
2024-03-12T01:36:20.216Z,16.90
2024-03-12T01:38:49.869Z,15.32
2024-03-12T01:41:17.379Z,12.95
2024-03-12T01:43:44.652Z,16.65
2024-03-12T01:46:11.889Z,15.80
2024-03-12T01:48:41.956Z,12.10
2024-03-12T01:51:10.689Z,11.30
2024-03-12T01:53:39.474Z,11.88
2024-03-12T01:56:06.993Z,11.25
2024-03-12T01:58:34.195Z,11.70
2024-03-12T02:01:01.456Z,10.98
2024-03-12T02:03:33.461Z,17.75
2024-03-12T02:06:01.162Z,16.63
2024-03-12T02:08:30.396Z,20.20
2024-03-12T02:10:57.794Z,11.65
2024-03-12T02:13:24.943Z,20.58
2024-03-12T02:15:52.427Z,19.83
2024-03-12T02:18:19.585Z,21.58
2024-03-12T02:20:47.228Z,17.73
2024-03-12T02:23:14.669Z,16.33
2024-03-12T02:25:44.282Z,15.73
2024-03-12T02:28:11.622Z,15.13
2024-03-12T02:30:39.109Z,14.80
2024-03-12T02:33:06.501Z,18.58
2024-03-12T02:35:36.111Z,17.25
2024-03-12T02:38:03.568Z,19.20
2024-03-12T02:40:30.721Z,16.10
2024-03-12T02:42:59.361Z,17.75
2024-03-12T02:45:26.591Z,18.05
2024-03-12T02:47:53.944Z,18.27
2024-03-12T02:50:21.351Z,18.88
2024-03-12T02:52:49.176Z,16.83
2024-03-12T02:55:16.631Z,20.83
2024-03-12T02:57:44.569Z,15.38
2024-03-12T03:00:15.449Z,16.73
2024-03-12T03:02:43.618Z,20.50
2024-03-12T03:05:11.508Z,19.17
2024-03-12T03:07:41.336Z,15.50
2024-03-12T03:10:09.492Z,16.60
2024-03-12T03:12:36.892Z,18.17
2024-03-12T03:15:05.119Z,15.65
2024-03-12T03:17:33.733Z,17.58
2024-03-12T03:20:01.020Z,17.00
2024-03-12T03:22:29.223Z,18.13
2024-03-12T03:24:56.582Z,18.92
2024-03-12T03:27:23.907Z,15.55
2024-03-12T03:29:51.171Z,18.88
2024-03-12T03:32:19.680Z,19.10
2024-03-12T03:34:48.264Z,23.00
2024-03-12T03:37:16.116Z,22.70
2024-03-12T03:39:43.658Z,21.67
2024-03-12T03:42:10.927Z,18.40
2024-03-12T03:44:38.116Z,22.70
2024-03-12T03:47:05.505Z,19.42
2024-03-12T03:49:32.695Z,13.43
2024-03-12T03:52:01.385Z,13.63
2024-03-12T03:54:28.583Z,15.02
2024-03-12T03:56:56.137Z,12.43
2024-03-12T03:59:23.307Z,17.05
2024-03-12T04:01:50.904Z,12.93
2024-03-12T04:04:20.416Z,13.40
2024-03-12T04:06:50.347Z,8.73
2024-03-12T04:09:21.422Z,17.70
2024-03-12T04:11:50.151Z,10.70
2024-03-12T04:14:19.272Z,14.63
2024-03-12T04:16:46.822Z,12.10
2024-03-12T04:19:14.637Z,13.05
2024-03-12T04:21:42.300Z,18.17
2024-03-12T04:24:12.009Z,12.52
2024-03-12T04:26:40.873Z,11.02
2024-03-12T04:29:08.690Z,16.27
2024-03-12T04:31:35.939Z,21.38
2024-03-12T04:34:03.943Z,11.48
2024-03-12T04:36:32.583Z,9.45
2024-03-12T04:38:59.881Z,13.50
2024-03-12T04:41:27.413Z,15.18
2024-03-12T04:43:56.340Z,14.80
2024-03-12T04:46:23.537Z,15.77
2024-03-12T04:48:51.202Z,20.67
2024-03-12T04:51:19.067Z,19.40
2024-03-12T04:53:46.577Z,22.75
2024-03-12T04:56:17.872Z,23.67
2024-03-12T04:58:45.349Z,22.38
2024-03-12T05:01:15.003Z,16.80
2024-03-12T05:03:42.235Z,20.40
2024-03-12T05:06:09.374Z,19.42
2024-03-12T05:08:36.560Z,20.00
2024-03-12T05:11:04.268Z,19.75
2024-03-12T05:13:32.150Z,19.38
2024-03-12T05:15:59.446Z,20.13
2024-03-12T05:18:28.285Z,19.30
2024-03-12T05:20:55.422Z,31.38
2024-03-12T05:23:22.601Z,31.23
2024-03-12T05:25:52.530Z,24.75
2024-03-12T05:28:20.970Z,24.27
2024-03-12T05:30:50.564Z,17.42
2024-03-12T05:33:18.052Z,21.30
2024-03-12T05:35:51.044Z,17.75
2024-03-12T05:38:35.171Z,13.27
2024-03-12T05:41:16.305Z,16.15
2024-03-12T05:44:02.274Z,8.73
2024-03-12T05:46:49.000Z,15.40
2024-03-12T05:49:17.089Z,14.15
2024-03-12T05:51:45.777Z,13.93
2024-03-12T05:54:12.965Z,16.10
2024-03-12T05:56:41.071Z,18.27
2024-03-12T05:59:08.595Z,16.40
2024-03-12T06:01:36.363Z,17.08
2024-03-12T06:04:06.628Z,11.88
2024-03-12T06:06:34.379Z,18.13
2024-03-12T06:09:03.261Z,22.30
2024-03-12T06:11:31.373Z,16.63
2024-03-12T06:14:02.124Z,15.95
2024-03-12T06:16:31.704Z,17.05
2024-03-12T06:18:59.020Z,17.48
2024-03-12T06:21:26.314Z,18.25
2024-03-12T06:23:55.101Z,19.67
2024-03-12T06:26:24.242Z,17.73
2024-03-12T06:28:51.816Z,17.08
2024-03-12T06:31:20.162Z,20.75
2024-03-12T06:33:50.253Z,13.18
2024-03-12T06:36:17.441Z,9.38
2024-03-12T06:38:44.800Z,11.30
2024-03-12T06:41:12.303Z,9.57
2024-03-12T06:43:42.414Z,11.43
2024-03-12T06:46:10.777Z,11.65
2024-03-12T06:48:38.463Z,12.23
2024-03-12T06:51:08.736Z,10.82
2024-03-12T06:53:38.825Z,16.08
2024-03-12T06:56:08.143Z,12.68
2024-03-12T06:58:35.436Z,11.27
2024-03-12T07:01:05.632Z,8.95
2024-03-12T07:03:35.281Z,8.10
2024-03-12T07:06:04.105Z,7.75
2024-03-12T07:08:31.228Z,9.70
2024-03-12T07:10:58.636Z,8.80
2024-03-12T07:13:27.674Z,6.15
2024-03-12T07:15:55.046Z,8.57
2024-03-12T07:18:24.703Z,10.45
2024-03-12T07:20:53.986Z,6.40
2024-03-12T07:23:22.011Z,7.63
2024-03-12T07:25:49.399Z,12.60
2024-03-12T07:28:17.421Z,9.57
2024-03-12T07:30:46.594Z,9.10
2024-03-12T07:33:14.079Z,8.70
2024-03-12T07:35:42.753Z,4.88
2024-03-12T07:38:09.951Z,6.88
2024-03-12T07:40:39.352Z,8.65
2024-03-12T07:43:07.315Z,8.40
2024-03-12T07:45:36.970Z,8.98
2024-03-12T07:48:06.987Z,7.90
2024-03-12T07:50:36.369Z,6.50
2024-03-12T07:53:07.277Z,8.60
2024-03-12T07:55:36.683Z,5.97
2024-03-12T07:58:04.301Z,3.00
2024-03-12T08:00:32.657Z,3.10
2024-03-12T08:02:59.815Z,4.82
2024-03-12T08:05:27.852Z,3.50
2024-03-12T08:07:55.860Z,5.53
2024-03-12T08:10:24.578Z,3.92
2024-03-12T08:12:51.817Z,2.90
2024-03-12T08:15:19.137Z,3.40
2024-03-12T08:17:48.455Z,4.45
2024-03-12T08:20:18.739Z,2.30
2024-03-12T08:22:48.663Z,2.17
2024-03-12T08:25:21.399Z,4.18
2024-03-12T08:27:50.688Z,2.38
2024-03-12T08:30:19.759Z,2.92
2024-03-12T08:32:48.007Z,3.72
2024-03-12T08:35:15.391Z,3.88
2024-03-12T08:37:43.153Z,1.95
2024-03-12T08:40:14.298Z,2.20
2024-03-12T08:42:47.709Z,2.72
2024-03-12T08:45:24.686Z,3.42
2024-03-12T08:47:52.870Z,2.35
2024-03-12T08:50:20.129Z,1.52
2024-03-12T08:52:47.569Z,3.05
2024-03-12T08:55:15.235Z,9.90
2024-03-12T08:57:43.285Z,3.13
2024-03-12T09:00:14.206Z,1.20
2024-03-12T09:02:42.909Z,0.75
2024-03-12T09:05:10.714Z,1.95
2024-03-12T09:07:38.373Z,2.72
2024-03-12T09:10:24.572Z,1.58
2024-03-12T09:12:51.878Z,1.33
2024-03-12T09:15:19.071Z,4.00
2024-03-12T09:17:48.653Z,1.25
2024-03-12T09:20:16.371Z,1.85
2024-03-12T09:22:45.910Z,0.70
2024-03-12T09:25:14.167Z,1.17
2024-03-12T09:27:42.316Z,3.40
2024-03-12T09:30:11.841Z,2.38
2024-03-12T09:32:40.864Z,0.50
2024-03-12T09:35:10.204Z,5.40
2024-03-12T09:37:38.465Z,0.40
2024-03-12T09:40:10.043Z,1.23
2024-03-12T09:42:39.251Z,0.95
2024-03-12T09:45:08.313Z,2.22
2024-03-12T09:47:39.398Z,1.63
2024-03-12T09:50:12.406Z,0.40
2024-03-12T09:52:44.370Z,1.48
2024-03-12T09:55:12.386Z,2.42
2024-03-12T09:57:40.148Z,0.75
2024-03-12T10:00:13.079Z,1.00
2024-03-12T10:02:40.338Z,0.68
2024-03-12T10:05:11.188Z,2.20
2024-03-12T10:08:00.098Z,2.30
2024-03-12T10:10:28.729Z,1.70
2024-03-12T10:12:56.107Z,6.93
2024-03-12T10:15:24.368Z,2.00
2024-03-12T10:17:59.078Z,1.52
2024-03-12T10:20:26.481Z,1.70
2024-03-12T10:23:05.984Z,0.70
2024-03-12T10:25:37.602Z,2.33
2024-03-12T10:28:08.957Z,1.88
2024-03-12T10:30:39.421Z,4.57
2024-03-12T10:33:19.145Z,1.45
2024-03-12T10:35:47.147Z,1.05
2024-03-12T10:38:25.620Z,0.40
2024-03-12T10:40:56.796Z,1.02
2024-03-12T10:43:25.526Z,1.45
2024-03-12T10:45:53.265Z,0.30
2024-03-12T10:48:22.203Z,0.75
2024-03-12T10:50:49.767Z,0.30
2024-03-12T10:53:17.775Z,0.75
2024-03-12T10:55:46.007Z,0.85
2024-03-12T10:58:16.766Z,0.52
2024-03-12T11:00:45.926Z,0.85
2024-03-12T11:03:14.914Z,0.68
2024-03-12T11:05:44.480Z,0.88
2024-03-12T11:08:13.457Z,2.63
2024-03-12T11:10:43.421Z,91.95
2024-03-12T11:13:11.169Z,0.60
2024-03-12T11:15:41.461Z,5.57
2024-03-12T11:18:10.717Z,4.72
2024-03-12T11:20:40.697Z,4.18
2024-03-12T11:23:08.519Z,0.80
2024-03-12T11:25:49.957Z,0.52
2024-03-12T11:28:23.585Z,0.82
2024-03-12T11:31:03.294Z,5.32
2024-03-12T11:33:50.720Z,0.95
2024-03-12T11:36:26.979Z,3.35
2024-03-12T11:38:54.422Z,0.43
2024-03-12T11:41:22.531Z,1.30
2024-03-12T11:43:50.159Z,0.77
2024-03-12T11:46:22.736Z,0.65
2024-03-12T11:48:53.236Z,1.60
2024-03-12T11:51:20.757Z,0.52
2024-03-12T11:53:48.990Z,1.27
2024-03-12T11:56:20.361Z,1.35
2024-03-12T11:58:57.579Z,4.97
2024-03-12T12:01:36.008Z,1.23
2024-03-12T12:04:05.239Z,11.65
2024-03-12T12:06:33.360Z,5.75
2024-03-12T12:09:06.886Z,2.10
2024-03-12T12:11:36.210Z,8.15
2024-03-12T12:14:07.155Z,4.07
2024-03-12T12:16:36.632Z,0.50
2024-03-12T12:19:06.835Z,0.77
2024-03-12T12:21:34.980Z,3.20
2024-03-12T12:24:04.419Z,3.25
2024-03-12T12:26:37.562Z,0.68
2024-03-12T12:29:08.047Z,0.40
2024-03-12T12:31:38.160Z,0.20
2024-03-12T12:34:07.775Z,1.42
2024-03-12T12:36:39.804Z,1.50
2024-03-12T12:39:11.526Z,0.38
2024-03-12T12:41:44.382Z,1.95
2024-03-12T12:44:17.968Z,0.10
2024-03-12T12:46:49.357Z,0.95
2024-03-12T12:49:18.683Z,0.47
2024-03-12T12:51:47.849Z,0.30
2024-03-12T12:54:19.958Z,0.63
2024-03-12T12:56:47.901Z,0.47
2024-03-12T12:59:20.215Z,2.70
2024-03-12T13:01:52.089Z,0.30
2024-03-12T13:04:21.351Z,0.20
2024-03-12T13:06:49.194Z,0.47
2024-03-12T13:09:28.968Z,0.95
2024-03-12T13:11:56.844Z,0.20
2024-03-12T13:14:24.674Z,0.17
2024-03-12T13:16:53.296Z,1.20
2024-03-12T13:19:21.221Z,1.05
2024-03-12T13:21:49.605Z,1.38
2024-03-12T13:24:16.962Z,0.30
2024-03-12T13:26:44.191Z,1.10
2024-03-12T13:29:11.384Z,4.18
2024-03-12T13:31:38.970Z,0.47
2024-03-12T13:34:09.388Z,1.75
2024-03-12T13:36:36.740Z,0.75
2024-03-12T13:39:07.832Z,0.30
2024-03-12T13:41:36.374Z,0.55
2024-03-12T13:44:03.941Z,2.45
2024-03-12T13:46:32.180Z,1.55
2024-03-12T13:49:16.834Z,9.68
2024-03-12T13:51:46.532Z,8.35
2024-03-12T13:54:13.870Z,6.07
2024-03-12T13:56:41.436Z,4.38
2024-03-12T13:59:09.069Z,1.98
2024-03-12T14:01:36.524Z,2.10
2024-03-12T14:04:04.114Z,0.50
2024-03-12T14:06:35.018Z,3.38
2024-03-12T14:09:02.421Z,1.60
2024-03-12T14:11:30.593Z,1.80
2024-03-12T14:13:57.843Z,0.40
2024-03-12T14:16:25.880Z,1.63
2024-03-12T14:18:54.625Z,6.50
2024-03-12T14:21:22.394Z,0.70
2024-03-12T14:23:51.362Z,4.70
2024-03-12T14:26:19.344Z,1.45
2024-03-12T14:28:47.392Z,1.88
2024-03-12T14:31:15.400Z,3.22
2024-03-12T14:33:43.178Z,4.45
2024-03-12T14:36:10.771Z,2.67
2024-03-12T14:38:38.749Z,1.58
2024-03-12T14:41:07.912Z,2.15
2024-03-12T14:43:35.425Z,3.00
2024-03-12T14:46:04.112Z,9.40
2024-03-12T14:48:32.657Z,7.00
2024-03-12T14:51:01.073Z,4.20
2024-03-12T14:53:28.811Z,6.25
2024-03-12T14:55:57.546Z,4.78
2024-03-12T14:58:29.244Z,3.83
2024-03-12T15:00:56.742Z,7.72
2024-03-12T15:03:23.977Z,6.45
2024-03-12T15:05:55.168Z,7.82
2024-03-12T15:08:24.267Z,17.80
2024-03-12T15:10:51.843Z,18.05
2024-03-12T15:13:19.175Z,22.83
2024-03-12T15:15:47.933Z,24.65
2024-03-12T15:18:15.237Z,27.27
2024-03-12T15:20:43.164Z,58.97
2024-03-12T15:23:10.647Z,361.42
2024-03-12T15:25:38.105Z,607.90
2024-03-12T15:28:05.998Z,433.20
2024-03-12T15:30:34.933Z,589.60
2024-03-12T15:33:07.669Z,159.43
2024-03-12T15:35:37.958Z,44.42
2024-03-12T15:38:06.450Z,31.23
2024-03-12T15:40:33.869Z,22.70
2024-03-12T15:43:01.716Z,25.45
2024-03-12T15:45:28.924Z,25.30
2024-03-12T15:47:56.110Z,26.35
2024-03-12T15:50:26.150Z,30.80
2024-03-12T15:52:55.020Z,26.17
2024-03-12T15:55:23.121Z,26.85
2024-03-12T15:57:50.769Z,30.98
2024-03-12T16:00:18.539Z,35.25
2024-03-12T16:02:48.003Z,27.33
2024-03-12T16:05:16.145Z,30.85
2024-03-12T16:07:48.962Z,27.15
2024-03-12T16:10:16.526Z,30.90
2024-03-12T16:12:46.336Z,32.05
2024-03-12T16:15:14.305Z,41.50
2024-03-12T16:17:41.589Z,45.10
2024-03-12T16:20:20.504Z,35.97
2024-03-12T16:22:49.398Z,31.75
2024-03-12T16:25:16.886Z,60.63
2024-03-12T16:27:46.888Z,39.72
2024-03-12T16:30:15.946Z,35.97
2024-03-12T16:32:44.781Z,41.05
2024-03-12T16:35:12.231Z,51.05
2024-03-12T16:37:39.875Z,39.40
2024-03-12T16:40:10.686Z,32.58
2024-03-12T16:42:38.278Z,33.55
2024-03-12T16:45:07.023Z,28.55
2024-03-12T16:47:34.773Z,38.67
2024-03-12T16:50:05.718Z,33.40
2024-03-12T16:52:33.167Z,53.00
2024-03-12T16:55:02.649Z,79.30
2024-03-12T16:57:35.273Z,31.20
2024-03-12T17:00:04.554Z,28.10
2024-03-12T17:02:44.442Z,25.08
2024-03-12T17:05:14.065Z,25.15
2024-03-12T17:07:42.610Z,25.17
2024-03-12T17:10:10.939Z,30.60
2024-03-12T17:12:41.211Z,30.17
2024-03-12T17:15:15.398Z,30.38
2024-03-12T17:17:44.375Z,33.23
2024-03-12T17:20:12.116Z,39.22
2024-03-12T17:22:41.665Z,34.63
2024-03-12T17:25:11.599Z,40.05
2024-03-12T17:27:42.729Z,35.33
2024-03-12T17:30:12.112Z,34.50
2024-03-12T17:32:41.846Z,35.00
2024-03-12T17:35:12.790Z,45.35
2024-03-12T17:37:42.773Z,42.05
2024-03-12T17:40:15.677Z,125.78
2024-03-12T17:42:45.811Z,68.85
2024-03-12T17:45:14.437Z,46.88
2024-03-12T17:47:48.233Z,43.47
2024-03-12T17:50:21.176Z,36.53
2024-03-12T17:52:50.396Z,30.20
2024-03-12T17:55:18.829Z,31.92
2024-03-12T17:57:48.257Z,31.48
2024-03-12T18:00:19.904Z,31.00
2024-03-12T18:02:49.521Z,34.25
2024-03-12T18:05:18.514Z,33.05
2024-03-12T18:07:47.075Z,32.00
2024-03-12T18:10:16.797Z,41.53
2024-03-12T18:12:46.252Z,33.72
2024-03-12T18:15:20.009Z,32.22
2024-03-12T18:17:48.696Z,33.50
2024-03-12T18:20:30.940Z,33.10
2024-03-12T18:22:59.517Z,31.70
2024-03-12T18:25:26.948Z,34.55
2024-03-12T18:27:58.401Z,35.80
2024-03-12T18:30:28.267Z,30.45
2024-03-12T18:32:55.941Z,31.60
2024-03-12T18:35:23.383Z,33.08
2024-03-12T18:37:52.037Z,28.45
2024-03-12T18:40:20.830Z,62.85
2024-03-12T18:42:49.534Z,241.13
2024-03-12T18:45:20.591Z,113.40
2024-03-12T18:47:51.439Z,80.55
2024-03-12T18:50:21.110Z,115.53
2024-03-12T18:52:48.842Z,77.50
2024-03-12T18:55:18.280Z,73.65
2024-03-12T18:57:46.807Z,98.63
2024-03-12T19:00:24.298Z,41.88
2024-03-12T19:02:55.001Z,28.30
2024-03-12T19:05:25.292Z,35.78
2024-03-12T19:07:55.059Z,40.10
2024-03-12T19:10:25.244Z,70.97
2024-03-12T19:12:56.641Z,102.70
2024-03-12T19:15:26.661Z,39.22
2024-03-12T19:17:56.851Z,36.17
2024-03-12T19:20:26.454Z,34.17
2024-03-12T19:22:55.259Z,31.45
2024-03-12T19:25:23.686Z,27.45
2024-03-12T19:27:52.275Z,28.92
2024-03-12T19:30:20.679Z,31.50
2024-03-12T19:32:50.110Z,30.48
2024-03-12T19:35:19.906Z,26.73
2024-03-12T19:37:48.698Z,31.80
2024-03-12T19:40:22.926Z,31.60
2024-03-12T19:42:51.376Z,26.48
2024-03-12T19:45:22.149Z,29.90
2024-03-12T19:47:52.530Z,29.45
2024-03-12T19:50:29.386Z,32.83
2024-03-12T19:52:57.094Z,32.30
2024-03-12T19:55:31.376Z,32.50
2024-03-12T19:58:02.659Z,35.10
2024-03-12T20:00:31.985Z,25.88
2024-03-12T20:03:00.929Z,32.03
2024-03-12T20:05:31.309Z,28.90
2024-03-12T20:07:59.184Z,31.90
2024-03-12T20:10:29.362Z,27.95
2024-03-12T20:12:57.020Z,33.40
2024-03-12T20:15:24.806Z,29.42
2024-03-12T20:17:52.453Z,30.73
2024-03-12T20:20:19.902Z,31.30
2024-03-12T20:22:51.977Z,27.92
2024-03-12T20:25:20.760Z,32.65
2024-03-12T20:27:55.316Z,29.05
2024-03-12T20:30:28.584Z,35.30
2024-03-12T20:32:59.464Z,31.25
2024-03-12T20:35:33.168Z,34.20
2024-03-12T20:38:02.217Z,98.88
2024-03-12T20:40:29.601Z,193.48
2024-03-12T20:43:00.328Z,55.22
2024-03-12T20:45:30.242Z,65.45
2024-03-12T20:47:59.057Z,195.07
2024-03-12T20:50:26.530Z,243.15
2024-03-12T20:52:53.781Z,400.27
2024-03-12T20:55:22.621Z,280.80
2024-03-12T20:57:51.113Z,154.63
2024-03-12T21:00:24.706Z,129.43
2024-03-12T21:02:55.001Z,48.15
2024-03-12T21:05:22.562Z,55.15
2024-03-12T21:07:51.664Z,55.80
2024-03-12T21:10:20.182Z,129.07
2024-03-12T21:12:51.138Z,80.28
2024-03-12T21:15:19.813Z,91.82
2024-03-12T21:17:47.611Z,72.55
2024-03-12T21:20:23.021Z,54.03
2024-03-12T21:22:50.865Z,51.95
2024-03-12T21:25:19.052Z,38.70
2024-03-12T21:27:46.755Z,41.38
2024-03-12T21:30:17.706Z,39.38
2024-03-12T21:32:45.149Z,38.83
2024-03-12T21:35:13.197Z,41.72
2024-03-12T21:37:40.716Z,37.05
2024-03-12T21:40:17.658Z,40.90
2024-03-12T21:42:45.601Z,44.58
2024-03-12T21:45:16.170Z,41.05
2024-03-12T21:47:47.011Z,41.67
2024-03-12T21:50:16.710Z,38.00
2024-03-12T21:52:44.429Z,36.10
2024-03-12T21:55:12.460Z,36.47
2024-03-12T21:57:41.046Z,39.30
2024-03-12T22:00:20.166Z,36.92
2024-03-12T22:02:50.251Z,38.92
2024-03-12T22:05:20.822Z,38.30
2024-03-12T22:07:50.797Z,34.92
2024-03-12T22:10:19.163Z,36.92
2024-03-12T22:12:46.899Z,38.78
2024-03-12T22:15:16.091Z,36.20
2024-03-12T22:17:44.884Z,36.40
2024-03-12T22:20:20.030Z,35.97
2024-03-12T22:22:48.337Z,36.45
2024-03-12T22:25:15.908Z,36.83
2024-03-12T22:27:44.980Z,42.10
2024-03-12T22:30:12.906Z,41.70
2024-03-12T22:32:43.326Z,35.13
2024-03-12T22:35:11.132Z,43.35
2024-03-12T22:37:40.551Z,39.53
2024-03-12T22:40:13.749Z,49.90
2024-03-12T22:42:41.932Z,46.92
2024-03-12T22:45:12.540Z,43.78
2024-03-12T22:47:40.836Z,46.85
2024-03-12T22:50:09.872Z,42.17
2024-03-12T22:52:37.647Z,42.92
2024-03-12T22:55:08.964Z,45.30
2024-03-12T22:57:39.668Z,44.08
2024-03-12T23:00:31.262Z,40.42
2024-03-12T23:03:02.370Z,41.92
2024-03-12T23:05:34.825Z,42.33
2024-03-12T23:08:06.583Z,46.38
2024-03-12T23:10:37.451Z,46.28
2024-03-12T23:13:05.168Z,41.25
2024-03-12T23:15:32.777Z,42.95
2024-03-12T23:18:04.059Z,40.60
2024-03-12T23:20:32.096Z,39.00
2024-03-12T23:22:59.496Z,40.22
2024-03-12T23:25:26.839Z,40.95
2024-03-12T23:27:56.547Z,41.20
2024-03-12T23:30:26.936Z,39.97
2024-03-12T23:32:59.240Z,40.67
2024-03-12T23:35:28.494Z,37.60
2024-03-12T23:37:58.822Z,37.10
2024-03-12T23:40:26.550Z,39.95
2024-03-12T23:42:56.366Z,42.30
2024-03-12T23:45:27.717Z,35.00
2024-03-12T23:47:55.117Z,37.97
2024-03-12T23:50:22.319Z,36.83
2024-03-12T23:52:50.009Z,38.53
2024-03-12T23:55:17.729Z,35.42
2024-03-12T23:57:45.168Z,37.03
